createdAt,value
2018-11-07T00:00:00.668Z,0.50
2018-11-07T00:01:00.671Z,0.40
2018-11-07T00:02:00.679Z,0.60
2018-11-07T00:03:00.842Z,0.60
2018-11-07T00:04:00.721Z,0.70
2018-11-07T00:05:00.689Z,0.50
2018-11-07T00:06:00.688Z,0.60
2018-11-07T00:07:00.739Z,0.60
2018-11-07T00:08:00.746Z,0.60
2018-11-07T00:09:00.700Z,0.50
2018-11-07T00:10:00.703Z,0.70
2018-11-07T00:11:00.708Z,0.60
2018-11-07T00:12:00.710Z,0.60
2018-11-07T00:13:00.714Z,0.70
2018-11-07T00:14:00.766Z,0.50
2018-11-07T00:15:00.721Z,0.60
2018-11-07T00:16:00.726Z,0.60
2018-11-07T00:17:00.730Z,0.70
2018-11-07T00:18:00.733Z,0.50
2018-11-07T00:19:00.738Z,0.60
2018-11-07T00:20:00.743Z,1.20
2018-11-07T00:21:00.743Z,0.50
2018-11-07T00:22:00.747Z,0.60
2018-11-07T00:23:00.749Z,0.90
2018-11-07T00:24:00.753Z,0.50
2018-11-07T00:25:00.770Z,0.60
2018-11-07T00:26:00.760Z,0.50
2018-11-07T00:27:00.764Z,0.70
2018-11-07T00:28:00.768Z,0.60
2018-11-07T00:29:00.776Z,0.90
2018-11-07T00:30:00.784Z,0.60
2018-11-07T00:31:00.778Z,0.60
2018-11-07T00:32:00.809Z,0.60
2018-11-07T00:33:00.790Z,0.60
2018-11-07T00:34:00.788Z,0.70
2018-11-07T00:35:00.880Z,0.60
2018-11-07T00:36:00.798Z,0.70
2018-11-07T00:37:00.801Z,0.70
2018-11-07T00:38:00.802Z,0.60
2018-11-07T00:39:00.807Z,0.60
2018-11-07T00:40:00.883Z,0.90
2018-11-07T00:41:00.825Z,0.50
2018-11-07T00:42:00.815Z,0.60
2018-11-07T00:43:00.823Z,0.60
2018-11-07T00:44:00.824Z,0.60
2018-11-07T00:45:00.834Z,0.50
2018-11-07T00:46:00.856Z,0.90
2018-11-07T00:47:00.843Z,0.60
2018-11-07T00:48:00.843Z,0.70
2018-11-07T00:49:00.845Z,0.70
2018-11-07T00:50:00.879Z,0.80
2018-11-07T00:51:00.851Z,0.70
2018-11-07T00:52:00.854Z,0.70
2018-11-07T00:53:00.857Z,0.70
2018-11-07T00:54:00.861Z,0.60
2018-11-07T00:55:00.880Z,0.50
2018-11-07T00:56:00.904Z,0.60
2018-11-07T00:57:00.878Z,0.60
2018-11-07T00:58:00.949Z,0.50
2018-11-07T00:59:00.887Z,0.60
2018-11-07T01:00:00.882Z,0.70
2018-11-07T01:01:00.887Z,0.60
2018-11-07T01:02:00.894Z,0.60
2018-11-07T01:03:00.892Z,0.70
2018-11-07T01:04:00.896Z,0.60
2018-11-07T01:05:00.903Z,0.50
2018-11-07T01:06:00.903Z,0.60
2018-11-07T01:07:00.916Z,0.60
2018-11-07T01:08:00.914Z,0.70
2018-11-07T01:09:00.915Z,0.80
2018-11-07T01:10:00.918Z,0.50
2018-11-07T01:11:00.929Z,0.60
2018-11-07T01:12:00.924Z,0.70
2018-11-07T01:13:00.934Z,0.60
2018-11-07T01:14:01.007Z,0.50
2018-11-07T01:15:00.938Z,0.50
2018-11-07T01:16:00.939Z,0.60
2018-11-07T01:17:00.958Z,0.60
2018-11-07T01:18:00.957Z,0.60
2018-11-07T01:19:00.954Z,0.50
2018-11-07T01:20:00.953Z,0.50
2018-11-07T01:21:00.958Z,1.00
2018-11-07T01:22:00.960Z,0.50
2018-11-07T01:23:00.964Z,0.80
2018-11-07T01:24:00.971Z,0.50
2018-11-07T01:25:00.972Z,0.50
2018-11-07T01:26:00.975Z,0.70
2018-11-07T01:27:01.009Z,0.60
2018-11-07T01:28:01.035Z,0.60
2018-11-07T01:29:00.986Z,0.50
2018-11-07T01:30:00.995Z,0.70
2018-11-07T01:31:00.994Z,0.70
2018-11-07T01:32:00.998Z,0.70
2018-11-07T01:33:01.001Z,0.50
2018-11-07T01:34:01.004Z,0.70
2018-11-07T01:35:01.008Z,0.70
2018-11-07T01:36:01.076Z,0.90
2018-11-07T01:37:01.016Z,0.60
2018-11-07T01:38:01.018Z,0.60
2018-11-07T01:39:01.022Z,0.60
2018-11-07T01:40:01.027Z,0.60
2018-11-07T01:41:01.030Z,0.60
2018-11-07T01:42:01.076Z,0.60
2018-11-07T01:43:01.036Z,0.70
2018-11-07T01:44:01.041Z,0.70
2018-11-07T01:45:01.131Z,1.00
2018-11-07T01:46:01.047Z,0.60
2018-11-07T01:47:01.050Z,0.70
2018-11-07T01:48:01.056Z,0.80
2018-11-07T01:49:01.058Z,0.50
2018-11-07T01:50:01.061Z,0.60
2018-11-07T01:51:01.066Z,0.70
2018-11-07T01:52:01.071Z,0.60
2018-11-07T01:53:01.074Z,0.60
2018-11-07T01:54:01.075Z,0.60
2018-11-07T01:55:01.080Z,0.50
2018-11-07T01:56:01.084Z,0.60
2018-11-07T01:57:01.095Z,0.70
2018-11-07T01:58:01.097Z,0.60
2018-11-07T01:59:01.096Z,0.60
2018-11-07T02:00:01.099Z,0.60
2018-11-07T02:01:01.104Z,0.70
2018-11-07T02:02:01.104Z,0.60
2018-11-07T02:03:01.110Z,0.70
2018-11-07T02:04:01.146Z,0.60
2018-11-07T02:05:01.117Z,0.60
2018-11-07T02:06:01.121Z,0.60
2018-11-07T02:07:01.122Z,0.60
2018-11-07T02:08:01.130Z,0.60
2018-11-07T02:09:01.133Z,0.70
2018-11-07T02:10:01.135Z,0.70
2018-11-07T02:11:01.142Z,0.80
2018-11-07T02:12:01.141Z,0.60
2018-11-07T02:13:01.144Z,0.90
2018-11-07T02:14:01.155Z,0.60
2018-11-07T02:15:01.188Z,0.70
2018-11-07T02:16:01.160Z,0.60
2018-11-07T02:17:01.158Z,0.60
2018-11-07T02:18:01.163Z,0.60
2018-11-07T02:19:01.165Z,0.60
2018-11-07T02:20:01.169Z,0.60
2018-11-07T02:21:01.174Z,0.60
2018-11-07T02:22:01.179Z,1.10
2018-11-07T02:23:01.180Z,0.70
2018-11-07T02:24:01.184Z,0.60
2018-11-07T02:25:01.187Z,0.70
2018-11-07T02:26:01.191Z,0.80
2018-11-07T02:27:01.196Z,0.60
2018-11-07T02:28:01.199Z,0.60
2018-11-07T02:29:01.209Z,0.60
2018-11-07T02:30:01.206Z,0.70
2018-11-07T02:31:01.247Z,0.80
2018-11-07T02:32:01.214Z,0.80
2018-11-07T02:33:01.218Z,0.70
2018-11-07T02:34:01.219Z,0.70
2018-11-07T02:35:01.224Z,1.00
2018-11-07T02:36:01.226Z,0.50
2018-11-07T02:37:01.317Z,0.70
2018-11-07T02:38:01.235Z,0.60
2018-11-07T02:39:01.237Z,0.80
2018-11-07T02:40:01.242Z,0.60
2018-11-07T02:41:01.248Z,0.80
2018-11-07T02:42:01.341Z,0.70
2018-11-07T02:43:01.252Z,0.60
2018-11-07T02:44:01.258Z,0.60
2018-11-07T02:45:01.262Z,0.70
2018-11-07T02:46:01.263Z,0.60
2018-11-07T02:47:01.282Z,0.70
2018-11-07T02:48:01.311Z,0.70
2018-11-07T02:49:01.274Z,0.60
2018-11-07T02:50:01.277Z,0.70
2018-11-07T02:51:01.280Z,0.60
2018-11-07T02:52:01.284Z,0.60
2018-11-07T02:53:01.293Z,0.70
2018-11-07T02:54:01.334Z,0.60
2018-11-07T02:55:01.302Z,0.60
2018-11-07T02:56:01.300Z,0.70
2018-11-07T02:57:01.302Z,0.60
2018-11-07T02:58:01.305Z,0.60
2018-11-07T02:59:01.311Z,0.80
2018-11-07T03:00:01.316Z,0.70
2018-11-07T03:01:01.373Z,0.60
2018-11-07T03:02:01.328Z,0.80
2018-11-07T03:03:01.323Z,0.60
2018-11-07T03:04:01.329Z,0.70
2018-11-07T03:05:01.337Z,0.70
2018-11-07T03:06:01.334Z,0.60
2018-11-07T03:07:01.338Z,0.60
2018-11-07T03:08:01.343Z,0.70
2018-11-07T03:09:01.343Z,1.10
2018-11-07T03:10:01.412Z,0.60
2018-11-07T03:11:01.356Z,0.60
2018-11-07T03:12:01.359Z,0.80
2018-11-07T03:13:01.361Z,0.70
2018-11-07T03:14:01.408Z,0.70
2018-11-07T03:15:01.367Z,0.60
2018-11-07T03:16:01.371Z,0.60
2018-11-07T03:17:01.375Z,0.60
2018-11-07T03:18:01.381Z,0.60
2018-11-07T03:19:01.381Z,0.70
2018-11-07T03:20:01.390Z,0.70
2018-11-07T03:21:01.396Z,0.60
2018-11-07T03:22:01.393Z,0.60
2018-11-07T03:23:01.433Z,0.70
2018-11-07T03:24:01.399Z,0.60
2018-11-07T03:25:01.406Z,0.60
2018-11-07T03:26:01.407Z,0.70
2018-11-07T03:27:01.409Z,0.60
2018-11-07T03:28:01.420Z,0.60
2018-11-07T03:29:01.418Z,0.70
2018-11-07T03:30:01.429Z,0.70
2018-11-07T03:31:01.425Z,0.70
2018-11-07T03:32:01.473Z,0.60
2018-11-07T03:33:01.431Z,0.70
2018-11-07T03:34:01.437Z,0.70
2018-11-07T03:35:01.448Z,0.70
2018-11-07T03:36:01.446Z,0.60
2018-11-07T03:37:01.451Z,0.60
2018-11-07T03:38:01.449Z,0.70
2018-11-07T03:39:01.453Z,0.70
2018-11-07T03:40:01.460Z,0.70
2018-11-07T03:41:01.461Z,0.70
2018-11-07T03:42:01.470Z,0.50
2018-11-07T03:43:01.471Z,0.60
2018-11-07T03:44:01.472Z,0.60
2018-11-07T03:45:01.481Z,0.60
2018-11-07T03:46:01.482Z,0.60
2018-11-07T03:47:01.493Z,0.70
2018-11-07T03:48:01.491Z,0.60
2018-11-07T03:49:01.491Z,0.50
2018-11-07T03:50:01.526Z,0.80
2018-11-07T03:51:01.500Z,0.70
2018-11-07T03:52:01.506Z,0.50
2018-11-07T03:53:01.590Z,0.90
2018-11-07T03:54:01.514Z,0.70
2018-11-07T03:55:01.512Z,0.60
2018-11-07T03:56:01.514Z,0.70
2018-11-07T03:57:01.520Z,0.60
2018-11-07T03:58:01.526Z,0.60
2018-11-07T03:59:01.591Z,0.60
2018-11-07T04:00:01.530Z,0.60
2018-11-07T04:01:01.537Z,0.70
2018-11-07T04:02:01.546Z,0.60
2018-11-07T04:03:01.543Z,0.70
2018-11-07T04:04:01.543Z,0.50
2018-11-07T04:05:01.549Z,0.60
2018-11-07T04:06:01.554Z,0.70
2018-11-07T04:07:01.554Z,0.60
2018-11-07T04:08:01.558Z,0.60
2018-11-07T04:09:01.564Z,0.60
2018-11-07T04:10:01.566Z,0.70
2018-11-07T04:11:01.574Z,0.50
2018-11-07T04:12:01.581Z,0.70
2018-11-07T04:13:01.577Z,0.70
2018-11-07T04:14:01.618Z,0.70
2018-11-07T04:15:01.585Z,0.60
2018-11-07T04:16:01.587Z,0.80
2018-11-07T04:17:01.591Z,0.70
2018-11-07T04:18:01.592Z,0.60
2018-11-07T04:19:01.598Z,0.70
2018-11-07T04:20:01.601Z,0.70
2018-11-07T04:21:01.606Z,0.70
2018-11-07T04:22:01.608Z,0.60
2018-11-07T04:23:01.677Z,0.60
2018-11-07T04:24:01.616Z,0.90
2018-11-07T04:25:01.620Z,0.60
2018-11-07T04:26:01.624Z,0.80
2018-11-07T04:27:01.627Z,0.50
2018-11-07T04:28:01.630Z,0.50
2018-11-07T04:29:01.634Z,0.60
2018-11-07T04:30:01.641Z,0.60
2018-11-07T04:31:01.643Z,0.70
2018-11-07T04:32:01.647Z,0.60
2018-11-07T04:33:01.648Z,0.80
2018-11-07T04:34:01.653Z,0.70
2018-11-07T04:35:01.654Z,0.70
2018-11-07T04:36:01.659Z,0.70
2018-11-07T04:37:01.661Z,0.70
2018-11-07T04:38:01.665Z,0.70
2018-11-07T04:39:01.826Z,0.70
2018-11-07T04:40:01.676Z,1.00
2018-11-07T04:41:01.676Z,0.70
2018-11-07T04:42:01.679Z,0.70
2018-11-07T04:43:01.685Z,0.80
2018-11-07T04:44:01.686Z,0.70
2018-11-07T04:45:01.762Z,0.60
2018-11-07T04:46:01.694Z,0.50
2018-11-07T04:47:01.699Z,0.60
2018-11-07T04:48:01.703Z,0.70
2018-11-07T04:49:01.706Z,0.70
2018-11-07T04:50:01.708Z,0.70
2018-11-07T04:51:01.712Z,0.90
2018-11-07T04:52:01.716Z,0.70
2018-11-07T04:53:01.720Z,0.60
2018-11-07T04:54:01.723Z,0.60
2018-11-07T04:55:01.727Z,0.60
2018-11-07T04:56:01.731Z,0.60
2018-11-07T04:57:01.736Z,0.60
2018-11-07T04:58:01.810Z,0.70
2018-11-07T04:59:01.746Z,0.70
2018-11-07T05:00:01.790Z,0.60
2018-11-07T05:01:01.767Z,0.60
2018-11-07T05:02:01.753Z,0.60
2018-11-07T05:03:01.756Z,0.70
2018-11-07T05:04:01.813Z,0.60
2018-11-07T05:05:01.766Z,0.80
2018-11-07T05:06:01.767Z,0.60
2018-11-07T05:07:01.812Z,0.60
2018-11-07T05:08:01.773Z,0.60
2018-11-07T05:09:01.777Z,0.60
2018-11-07T05:10:01.784Z,0.60
2018-11-07T05:11:01.811Z,0.50
2018-11-07T05:12:01.791Z,0.70
2018-11-07T05:13:01.791Z,0.60
2018-11-07T05:14:01.794Z,0.50
2018-11-07T05:15:01.805Z,0.50
2018-11-07T05:16:01.805Z,0.60
2018-11-07T05:17:01.807Z,0.50
2018-11-07T05:18:01.813Z,0.60
2018-11-07T05:19:01.812Z,0.70
2018-11-07T05:20:01.825Z,0.50
2018-11-07T05:21:01.824Z,0.70
2018-11-07T05:22:01.826Z,0.50
2018-11-07T05:23:01.838Z,0.50
2018-11-07T05:24:01.841Z,0.60
2018-11-07T05:25:01.865Z,0.50
2018-11-07T05:26:01.897Z,0.50
2018-11-07T05:27:01.844Z,0.50
2018-11-07T05:28:01.850Z,0.60
2018-11-07T05:29:01.848Z,0.50
2018-11-07T05:30:01.852Z,0.90
2018-11-07T05:31:01.855Z,0.60
2018-11-07T05:32:01.914Z,0.60
2018-11-07T05:33:01.924Z,0.50
2018-11-07T05:34:01.867Z,0.70
2018-11-07T05:35:01.871Z,0.50
2018-11-07T05:36:01.873Z,0.50
2018-11-07T05:37:01.877Z,0.50
2018-11-07T05:38:01.879Z,0.60
2018-11-07T05:39:01.884Z,0.50
2018-11-07T05:40:01.891Z,0.50
2018-11-07T05:41:01.949Z,0.60
2018-11-07T05:42:01.895Z,0.70
2018-11-07T05:43:01.897Z,0.60
2018-11-07T05:44:01.908Z,0.60
2018-11-07T05:45:01.905Z,0.60
2018-11-07T05:46:01.916Z,0.60
2018-11-07T05:47:01.913Z,0.90
2018-11-07T05:48:01.932Z,0.70
2018-11-07T05:49:01.995Z,1.30
2018-11-07T05:50:01.929Z,0.50
2018-11-07T05:51:01.930Z,1.00
2018-11-07T05:52:01.933Z,0.60
2018-11-07T05:53:01.938Z,0.40
2018-11-07T05:54:01.949Z,0.40
2018-11-07T05:55:01.942Z,0.40
2018-11-07T05:56:01.948Z,1.70
2018-11-07T05:57:01.947Z,0.50
2018-11-07T05:58:01.952Z,0.50
2018-11-07T05:59:01.953Z,0.50
2018-11-07T06:00:01.958Z,0.50
2018-11-07T06:01:02.021Z,0.40
2018-11-07T06:02:01.966Z,0.40
2018-11-07T06:03:01.969Z,0.40
2018-11-07T06:04:01.973Z,0.50
2018-11-07T06:05:01.978Z,0.50
2018-11-07T06:06:01.981Z,0.50
2018-11-07T06:07:01.984Z,0.70
2018-11-07T06:08:01.990Z,0.40
2018-11-07T06:09:01.991Z,0.70
2018-11-07T06:10:02.026Z,0.40
2018-11-07T06:11:01.997Z,0.50
2018-11-07T06:12:02.005Z,0.50
2018-11-07T06:13:02.043Z,0.50
2018-11-07T06:14:02.007Z,0.40
2018-11-07T06:15:02.012Z,0.40
2018-11-07T06:16:02.060Z,0.90
2018-11-07T06:17:02.021Z,0.40
2018-11-07T06:18:02.026Z,0.40
2018-11-07T06:19:02.026Z,0.50
2018-11-07T06:20:02.031Z,1.00
2018-11-07T06:21:02.034Z,0.40
2018-11-07T06:22:02.054Z,0.40
2018-11-07T06:23:02.109Z,1.10
2018-11-07T06:24:02.045Z,1.00
2018-11-07T06:25:02.147Z,0.90
2018-11-07T06:26:02.053Z,0.80
2018-11-07T06:27:02.066Z,0.50
2018-11-07T06:28:02.066Z,1.40
2018-11-07T06:29:02.066Z,0.50
2018-11-07T06:30:02.073Z,0.50
2018-11-07T06:31:02.073Z,1.10
2018-11-07T06:32:02.074Z,0.70
2018-11-07T06:33:02.082Z,0.60
2018-11-07T06:34:02.125Z,0.50
2018-11-07T06:35:02.086Z,0.80
2018-11-07T06:36:02.090Z,0.60
2018-11-07T06:37:02.202Z,0.60
2018-11-07T06:38:02.104Z,0.90
2018-11-07T06:39:02.101Z,1.00
2018-11-07T06:40:02.111Z,0.60
2018-11-07T06:41:02.109Z,0.70
2018-11-07T06:42:02.119Z,0.60
2018-11-07T06:43:02.116Z,1.00
2018-11-07T06:44:02.120Z,0.60
2018-11-07T06:45:02.132Z,0.90
2018-11-07T06:46:02.128Z,1.00
2018-11-07T06:47:02.132Z,0.60
2018-11-07T06:48:02.138Z,0.80
2018-11-07T06:49:02.139Z,0.50
2018-11-07T06:50:02.146Z,0.70
2018-11-07T06:51:02.147Z,0.70
2018-11-07T06:52:02.151Z,0.80
2018-11-07T06:53:02.155Z,0.80
2018-11-07T06:54:02.159Z,0.90
2018-11-07T06:55:02.169Z,1.50
2018-11-07T06:56:02.212Z,0.40
2018-11-07T06:57:02.171Z,1.00
2018-11-07T06:58:02.174Z,0.80
2018-11-07T06:59:02.182Z,2.00
2018-11-07T07:00:02.182Z,1.40
2018-11-07T07:01:02.187Z,1.00
2018-11-07T07:02:02.196Z,2.40
2018-11-07T07:03:02.194Z,1.30
2018-11-07T07:04:02.198Z,0.70
2018-11-07T07:05:02.203Z,0.80
2018-11-07T07:06:02.218Z,1.40
2018-11-07T07:07:02.209Z,1.00
2018-11-07T07:08:02.214Z,0.80
2018-11-07T07:09:02.280Z,0.60
2018-11-07T07:10:02.223Z,1.10
2018-11-07T07:11:02.229Z,2.40
2018-11-07T07:12:02.233Z,0.70
2018-11-07T07:13:02.241Z,0.90
2018-11-07T07:14:02.239Z,1.40
2018-11-07T07:15:02.244Z,0.70
2018-11-07T07:16:02.244Z,1.10
2018-11-07T07:17:02.249Z,1.70
2018-11-07T07:18:02.324Z,1.00
2018-11-07T07:19:02.278Z,2.80
2018-11-07T07:20:02.269Z,1.00
2018-11-07T07:21:02.269Z,2.30
2018-11-07T07:22:02.295Z,2.30
2018-11-07T07:23:02.275Z,1.20
2018-11-07T07:24:02.277Z,2.00
2018-11-07T07:25:02.281Z,2.30
2018-11-07T07:26:02.283Z,0.90
2018-11-07T07:27:02.289Z,0.80
2018-11-07T07:28:02.292Z,1.10
2018-11-07T07:29:02.296Z,2.40
2018-11-07T07:30:02.489Z,2.20
2018-11-07T07:31:02.305Z,1.40
2018-11-07T07:32:02.309Z,1.50
2018-11-07T07:33:02.339Z,3.90
2018-11-07T07:34:02.334Z,1.30
2018-11-07T07:35:02.357Z,0.90
2018-11-07T07:36:02.325Z,2.10
2018-11-07T07:37:02.334Z,1.60
2018-11-07T07:38:02.370Z,1.90
2018-11-07T07:39:02.343Z,1.90
2018-11-07T07:40:02.346Z,7.20
2018-11-07T07:41:02.346Z,3.10
2018-11-07T07:42:02.373Z,2.30
2018-11-07T07:43:02.358Z,1.50
2018-11-07T07:44:02.358Z,1.40
2018-11-07T07:45:02.361Z,2.50
2018-11-07T07:46:02.364Z,1.80
2018-11-07T07:47:02.372Z,1.90
2018-11-07T07:48:02.373Z,2.10
2018-11-07T07:49:02.395Z,1.50
2018-11-07T07:50:02.382Z,3.50
2018-11-07T07:51:02.385Z,2.40
2018-11-07T07:52:02.403Z,1.90
2018-11-07T07:53:02.468Z,2.00
2018-11-07T07:54:02.396Z,1.60
2018-11-07T07:55:02.402Z,1.90
2018-11-07T07:56:02.406Z,1.80
2018-11-07T07:57:02.411Z,3.50
2018-11-07T07:58:02.415Z,1.20
2018-11-07T07:59:02.469Z,1.10
2018-11-07T08:00:02.422Z,1.90
2018-11-07T08:01:02.440Z,3.00
2018-11-07T08:02:02.429Z,2.50
2018-11-07T08:03:02.435Z,2.90
2018-11-07T08:04:02.461Z,4.40
2018-11-07T08:05:02.472Z,1.10
2018-11-07T08:06:02.450Z,3.00
2018-11-07T08:07:02.532Z,4.30
2018-11-07T08:08:02.453Z,2.20
2018-11-07T08:09:02.461Z,3.20
2018-11-07T08:10:02.465Z,1.60
2018-11-07T08:11:02.465Z,2.50
2018-11-07T08:12:02.472Z,2.60
2018-11-07T08:13:02.479Z,1.90
2018-11-07T08:14:02.517Z,2.50
2018-11-07T08:15:02.484Z,1.20
2018-11-07T08:16:02.488Z,3.40
2018-11-07T08:17:02.493Z,1.70
2018-11-07T08:18:02.496Z,1.70
2018-11-07T08:19:02.500Z,1.60
2018-11-07T08:20:02.505Z,1.00
2018-11-07T08:21:02.591Z,4.30
2018-11-07T08:22:02.514Z,2.70
2018-11-07T08:23:02.519Z,0.80
2018-11-07T08:24:02.521Z,2.80
2018-11-07T08:25:02.525Z,3.20
2018-11-07T08:26:02.531Z,5.50
2018-11-07T08:27:02.533Z,2.80
2018-11-07T08:28:02.550Z,2.80
2018-11-07T08:29:02.601Z,1.10
2018-11-07T08:30:02.548Z,1.40
2018-11-07T08:31:02.600Z,1.40
2018-11-07T08:32:02.557Z,1.70
2018-11-07T08:33:02.562Z,1.30
2018-11-07T08:34:02.563Z,4.20
2018-11-07T08:35:02.568Z,1.90
2018-11-07T08:36:02.572Z,3.20
2018-11-07T08:37:02.577Z,1.80
2018-11-07T08:38:02.617Z,1.30
2018-11-07T08:39:02.589Z,3.80
2018-11-07T08:40:02.595Z,4.00
2018-11-07T08:41:02.595Z,2.10
2018-11-07T08:42:02.631Z,3.20
2018-11-07T08:43:02.724Z,2.50
2018-11-07T08:44:02.687Z,1.90
2018-11-07T08:45:02.651Z,3.90
2018-11-07T08:46:02.651Z,1.60
2018-11-07T08:47:02.634Z,1.70
2018-11-07T08:48:02.678Z,1.40
2018-11-07T08:49:02.631Z,1.90
2018-11-07T08:50:02.660Z,2.50
2018-11-07T08:51:02.652Z,2.00
2018-11-07T08:52:02.643Z,1.60
2018-11-07T08:53:02.645Z,4.40
2018-11-07T08:54:02.653Z,2.30
2018-11-07T08:55:02.795Z,3.30
2018-11-07T08:56:02.659Z,3.10
2018-11-07T08:57:02.663Z,3.00
2018-11-07T08:58:02.667Z,4.70
2018-11-07T08:59:02.669Z,2.50
2018-11-07T09:00:02.673Z,3.40
2018-11-07T09:01:02.677Z,3.20
2018-11-07T09:02:02.725Z,2.10
2018-11-07T09:03:02.687Z,5.30
2018-11-07T09:04:02.690Z,3.30
2018-11-07T09:05:02.695Z,3.70
2018-11-07T09:06:02.700Z,2.20
2018-11-07T09:07:02.720Z,3.00
2018-11-07T09:08:02.711Z,3.70
2018-11-07T09:09:02.714Z,3.80
2018-11-07T09:10:02.718Z,3.70
2018-11-07T09:11:02.723Z,1.40
2018-11-07T09:12:02.780Z,5.50
2018-11-07T09:13:02.800Z,3.30
2018-11-07T09:14:02.744Z,3.70
2018-11-07T09:15:02.740Z,2.40
2018-11-07T09:16:02.747Z,4.90
2018-11-07T09:17:02.748Z,2.90
2018-11-07T09:18:02.753Z,5.70
2018-11-07T09:19:02.817Z,1.90
2018-11-07T09:20:02.884Z,3.20
2018-11-07T09:21:02.772Z,3.90
2018-11-07T09:22:02.769Z,3.30
2018-11-07T09:23:02.773Z,1.90
2018-11-07T09:24:02.779Z,3.10
2018-11-07T09:25:02.787Z,4.60
2018-11-07T09:26:02.789Z,2.30
2018-11-07T09:27:02.820Z,3.20
2018-11-07T09:28:02.797Z,5.20
2018-11-07T09:29:02.876Z,4.40
2018-11-07T09:30:02.805Z,3.00
2018-11-07T09:31:02.809Z,4.70
2018-11-07T09:32:02.815Z,3.10
2018-11-07T09:33:02.825Z,3.30
2018-11-07T09:34:02.827Z,2.90
2018-11-07T09:35:02.831Z,2.10
2018-11-07T09:36:02.832Z,3.30
2018-11-07T09:37:02.838Z,2.40
2018-11-07T09:38:02.840Z,5.80
2018-11-07T09:39:02.850Z,2.70
2018-11-07T09:40:02.852Z,1.90
2018-11-07T09:41:02.857Z,2.50
2018-11-07T09:42:02.871Z,5.20
2018-11-07T09:43:02.862Z,2.80
2018-11-07T09:44:02.871Z,7.50
2018-11-07T09:45:02.873Z,2.80
2018-11-07T09:46:02.883Z,2.70
2018-11-07T09:47:02.884Z,4.20
2018-11-07T09:48:02.922Z,2.90
2018-11-07T09:49:02.895Z,3.60
2018-11-07T09:50:02.897Z,3.10
2018-11-07T09:51:02.898Z,4.40
2018-11-07T09:52:02.906Z,5.70
2018-11-07T09:53:02.908Z,5.30
2018-11-07T09:54:02.981Z,4.10
2018-11-07T09:55:02.918Z,2.30
2018-11-07T09:56:02.922Z,2.60
2018-11-07T09:57:02.926Z,2.70
2018-11-07T09:58:02.940Z,5.20
2018-11-07T09:59:02.938Z,3.00
2018-11-07T10:00:02.940Z,3.60
2018-11-07T10:01:02.943Z,4.70
2018-11-07T10:02:02.949Z,2.40
2018-11-07T10:03:02.953Z,2.50
2018-11-07T10:04:02.958Z,3.80
2018-11-07T10:05:02.963Z,2.00
2018-11-07T10:06:02.968Z,2.40
2018-11-07T10:07:02.972Z,3.60
2018-11-07T10:08:02.981Z,3.10
2018-11-07T10:09:02.980Z,3.30
2018-11-07T10:10:02.991Z,7.40
2018-11-07T10:11:02.988Z,3.90
2018-11-07T10:12:02.995Z,3.70
2018-11-07T10:13:03.051Z,3.10
2018-11-07T10:14:03.044Z,4.40
2018-11-07T10:15:03.008Z,3.40
2018-11-07T10:16:03.108Z,3.80
2018-11-07T10:17:03.017Z,2.80
2018-11-07T10:18:03.023Z,9.70
2018-11-07T10:19:03.029Z,2.40
2018-11-07T10:20:03.031Z,3.80
2018-11-07T10:21:03.035Z,2.70
2018-11-07T10:22:03.040Z,6.60
2018-11-07T10:23:03.046Z,1.90
2018-11-07T10:24:03.047Z,3.20
2018-11-07T10:25:03.051Z,3.30
2018-11-07T10:26:03.076Z,1.90
2018-11-07T10:27:03.180Z,4.30
2018-11-07T10:28:03.582Z,2.90
2018-11-07T10:29:03.319Z,2.30
2018-11-07T10:30:03.520Z,4.50
2018-11-07T10:31:03.083Z,3.30
2018-11-07T10:32:03.085Z,4.40
2018-11-07T10:33:03.090Z,4.50
2018-11-07T10:34:03.094Z,2.00
2018-11-07T10:35:03.098Z,1.30
2018-11-07T10:36:03.103Z,2.70
2018-11-07T10:37:03.106Z,2.70
2018-11-07T10:38:03.265Z,2.60
2018-11-07T10:39:03.241Z,2.00
2018-11-07T10:40:03.125Z,5.30
2018-11-07T10:41:03.127Z,4.50
2018-11-07T10:42:03.136Z,2.70
2018-11-07T10:43:03.137Z,3.50
2018-11-07T10:44:03.143Z,3.60
2018-11-07T10:45:03.146Z,2.90
2018-11-07T10:46:03.196Z,3.20
2018-11-07T10:47:03.161Z,3.60
2018-11-07T10:48:03.159Z,3.20
2018-11-07T10:49:03.165Z,5.60
2018-11-07T10:50:03.216Z,4.10
2018-11-07T10:51:03.172Z,3.20
2018-11-07T10:52:03.176Z,2.60
2018-11-07T10:53:03.182Z,2.60
2018-11-07T10:54:03.247Z,5.70
2018-11-07T10:55:03.189Z,3.20
2018-11-07T10:56:03.231Z,2.20
2018-11-07T10:57:03.200Z,2.60
2018-11-07T10:58:03.201Z,3.80
2018-11-07T10:59:03.209Z,3.80
2018-11-07T11:00:03.239Z,3.40
2018-11-07T11:01:03.219Z,1.80
2018-11-07T11:02:03.220Z,4.00
2018-11-07T11:03:03.227Z,3.90
2018-11-07T11:04:03.233Z,2.70
2018-11-07T11:05:03.276Z,3.10
2018-11-07T11:06:03.244Z,4.90
2018-11-07T11:07:03.247Z,3.30
2018-11-07T11:08:03.251Z,3.60
2018-11-07T11:09:03.256Z,4.80
2018-11-07T11:10:03.261Z,3.50
2018-11-07T11:11:03.315Z,3.60
2018-11-07T11:12:03.272Z,3.20
2018-11-07T11:13:03.275Z,4.30
2018-11-07T11:14:03.281Z,3.50
2018-11-07T11:15:03.284Z,3.00
2018-11-07T11:16:03.288Z,2.70
2018-11-07T11:17:03.347Z,3.10
2018-11-07T11:18:03.298Z,3.90
2018-11-07T11:19:03.305Z,2.20
2018-11-07T11:20:03.320Z,2.60
2018-11-07T11:21:03.314Z,1.90
2018-11-07T11:22:03.319Z,2.60
2018-11-07T11:23:03.323Z,6.70
2018-11-07T11:24:03.327Z,2.90
2018-11-07T11:25:03.333Z,2.50
2018-11-07T11:26:03.342Z,3.10
2018-11-07T11:27:03.343Z,2.90
2018-11-07T11:28:03.347Z,3.80
2018-11-07T11:29:03.352Z,3.40
2018-11-07T11:30:03.382Z,2.30
2018-11-07T11:31:03.359Z,1.90
2018-11-07T11:32:03.366Z,4.90
2018-11-07T11:33:03.371Z,2.50
2018-11-07T11:34:03.522Z,3.00
2018-11-07T11:35:03.484Z,3.20
2018-11-07T11:36:03.382Z,2.40
2018-11-07T11:37:03.411Z,2.70
2018-11-07T11:38:03.397Z,4.00
2018-11-07T11:39:03.401Z,4.10
2018-11-07T11:40:03.405Z,2.00
2018-11-07T11:41:03.507Z,3.90
2018-11-07T11:42:03.411Z,3.30
2018-11-07T11:43:03.422Z,3.60
2018-11-07T11:44:03.426Z,3.60
2018-11-07T11:45:03.428Z,2.60
2018-11-07T11:46:03.431Z,1.70
2018-11-07T11:47:03.465Z,4.40
2018-11-07T11:48:03.444Z,4.80
2018-11-07T11:49:03.502Z,3.00
2018-11-07T11:50:03.453Z,3.90
2018-11-07T11:51:03.476Z,2.80
2018-11-07T11:52:03.462Z,2.40
2018-11-07T11:53:03.467Z,2.30
2018-11-07T11:54:03.471Z,2.60
2018-11-07T11:55:03.479Z,1.90
2018-11-07T11:56:03.480Z,2.70
2018-11-07T11:57:03.485Z,3.20
2018-11-07T11:58:03.491Z,3.10
2018-11-07T11:59:03.596Z,2.30
2018-11-07T12:00:03.839Z,3.00
2018-11-07T12:01:03.504Z,5.30
2018-11-07T12:02:03.521Z,2.60
2018-11-07T12:03:03.517Z,3.10
2018-11-07T12:04:03.519Z,2.40
2018-11-07T12:05:03.525Z,2.00
2018-11-07T12:06:03.529Z,3.20
2018-11-07T12:07:03.534Z,3.40
2018-11-07T12:08:03.544Z,3.70
2018-11-07T12:09:03.686Z,2.20
2018-11-07T12:10:03.557Z,4.40
2018-11-07T12:11:03.560Z,3.20
2018-11-07T12:12:03.580Z,3.70
2018-11-07T12:13:03.627Z,4.30
2018-11-07T12:14:03.572Z,4.80
2018-11-07T12:15:03.627Z,2.90
2018-11-07T12:16:03.579Z,2.60
2018-11-07T12:17:03.588Z,6.30
2018-11-07T12:18:03.589Z,2.20
2018-11-07T12:19:03.606Z,3.50
2018-11-07T12:20:03.596Z,2.40
2018-11-07T12:21:03.629Z,2.70
2018-11-07T12:22:03.608Z,4.40
2018-11-07T12:23:03.612Z,2.10
2018-11-07T12:24:03.619Z,3.10
2018-11-07T12:25:03.620Z,4.80
2018-11-07T12:26:03.625Z,3.90
2018-11-07T12:27:03.643Z,2.20
2018-11-07T12:28:03.637Z,3.40
2018-11-07T12:29:03.718Z,3.50
2018-11-07T12:30:03.646Z,2.80
2018-11-07T12:31:03.705Z,2.20
2018-11-07T12:32:03.656Z,2.80
2018-11-07T12:33:03.661Z,3.10
2018-11-07T12:34:03.664Z,4.10
2018-11-07T12:35:03.675Z,2.70
2018-11-07T12:36:03.676Z,1.30
2018-11-07T12:37:03.686Z,2.90
2018-11-07T12:38:03.685Z,3.20
2018-11-07T12:39:03.705Z,1.20
2018-11-07T12:40:03.695Z,2.30
2018-11-07T12:41:03.701Z,1.30
2018-11-07T12:42:03.702Z,2.80
2018-11-07T12:43:03.709Z,2.00
2018-11-07T12:44:03.739Z,1.90
2018-11-07T12:45:03.757Z,2.80
2018-11-07T12:46:03.723Z,1.90
2018-11-07T12:47:03.730Z,2.00
2018-11-07T12:48:03.733Z,1.50
2018-11-07T12:49:03.738Z,3.00
2018-11-07T12:50:03.823Z,2.60
2018-11-07T12:51:03.747Z,3.70
2018-11-07T12:52:03.753Z,1.80
2018-11-07T12:53:03.766Z,3.60
2018-11-07T12:54:03.773Z,4.10
2018-11-07T12:55:03.768Z,1.80
2018-11-07T12:56:03.775Z,1.60
2018-11-07T12:57:03.823Z,3.40
2018-11-07T12:58:03.977Z,3.60
2018-11-07T12:59:03.790Z,2.00
2018-11-07T13:00:03.794Z,4.30
2018-11-07T13:01:03.797Z,7.10
2018-11-07T13:02:03.801Z,3.30
2018-11-07T13:03:03.956Z,2.70
2018-11-07T13:04:03.810Z,2.50
2018-11-07T13:05:03.819Z,4.90
2018-11-07T13:06:03.826Z,2.10
2018-11-07T13:07:03.831Z,4.10
2018-11-07T13:08:03.880Z,2.80
2018-11-07T13:09:03.837Z,3.90
2018-11-07T13:10:03.840Z,3.70
2018-11-07T13:11:03.851Z,2.80
2018-11-07T13:12:03.849Z,3.30
2018-11-07T13:13:03.855Z,3.10
2018-11-07T13:14:03.859Z,1.80
2018-11-07T13:15:03.920Z,2.00
2018-11-07T13:16:03.870Z,1.40
2018-11-07T13:17:03.877Z,3.70
2018-11-07T13:18:03.922Z,2.60